sensor_id;sensor_type;location;lat;lon;timestamp;pressure;altitude;pressure_sealevel;temperature;humidity
21824;BME280;11074;48.596;9.238;2023-10-08T00:01:20;99108.22;;;15.25;66.98
21824;BME280;11074;48.596;9.238;2023-10-08T00:03:48;99099.16;;;14.99;66.76
21824;BME280;11074;48.596;9.238;2023-10-08T00:06:19;99104.56;;;15.04;67.26
21824;BME280;11074;48.596;9.238;2023-10-08T00:08:49;99106.53;;;15.14;67.22
21824;BME280;11074;48.596;9.238;2023-10-08T00:11:18;99100.31;;;15.08;67.35
21824;BME280;11074;48.596;9.238;2023-10-08T00:13:44;99095.47;;;15.10;67.26
21824;BME280;11074;48.596;9.238;2023-10-08T00:16:13;99085.38;;;14.96;67.39
21824;BME280;11074;48.596;9.238;2023-10-08T00:18:44;99091.56;;;14.96;67.45
21824;BME280;11074;48.596;9.238;2023-10-08T00:21:20;99092.34;;;14.92;67.54
21824;BME280;11074;48.596;9.238;2023-10-08T00:23:52;99089.69;;;14.97;68.38
21824;BME280;11074;48.596;9.238;2023-10-08T00:26:19;99080.53;;;14.93;67.51
21824;BME280;11074;48.596;9.238;2023-10-08T00:29:00;99084.31;;;14.97;68.00
21824;BME280;11074;48.596;9.238;2023-10-08T00:31:27;99077.91;;;15.03;67.73
21824;BME280;11074;48.596;9.238;2023-10-08T00:33:59;99075.38;;;14.91;68.27
21824;BME280;11074;48.596;9.238;2023-10-08T00:36:25;99070.84;;;14.97;68.28
21824;BME280;11074;48.596;9.238;2023-10-08T00:38:51;99064.84;;;14.85;68.45
21824;BME280;11074;48.596;9.238;2023-10-08T00:41:19;99056.03;;;14.94;68.31
21824;BME280;11074;48.596;9.238;2023-10-08T00:43:48;99064.56;;;14.86;68.13
21824;BME280;11074;48.596;9.238;2023-10-08T00:46:16;99065.19;;;14.98;68.71
21824;BME280;11074;48.596;9.238;2023-10-08T00:48:58;99061.38;;;14.89;68.08
21824;BME280;11074;48.596;9.238;2023-10-08T00:51:25;99055.63;;;14.76;68.98
21824;BME280;11074;48.596;9.238;2023-10-08T00:53:59;99053.25;;;14.84;69.48
21824;BME280;11074;48.596;9.238;2023-10-08T00:56:34;99055.63;;;14.76;69.08
21824;BME280;11074;48.596;9.238;2023-10-08T00:59:18;99054.13;;;14.90;68.74
21824;BME280;11074;48.596;9.238;2023-10-08T01:01:48;99055.19;;;14.89;68.39
21824;BME280;11074;48.596;9.238;2023-10-08T01:04:21;99048.44;;;14.86;68.52
21824;BME280;11074;48.596;9.238;2023-10-08T01:06:56;99054.69;;;14.97;68.68
21824;BME280;11074;48.596;9.238;2023-10-08T01:09:27;99053.53;;;14.88;68.92
21824;BME280;11074;48.596;9.238;2023-10-08T01:12:22;99052.47;;;14.89;68.85
21824;BME280;11074;48.596;9.238;2023-10-08T01:15:14;99047.59;;;14.86;68.75
21824;BME280;11074;48.596;9.238;2023-10-08T01:17:49;99036.06;;;14.90;68.92
21824;BME280;11074;48.596;9.238;2023-10-08T01:20:23;99034.41;;;14.84;68.08
21824;BME280;11074;48.596;9.238;2023-10-08T01:23:10;99039.31;;;14.92;68.86
21824;BME280;11074;48.596;9.238;2023-10-08T01:25:42;99038.25;;;14.93;67.94
21824;BME280;11074;48.596;9.238;2023-10-08T01:28:09;99040.16;;;14.93;67.62
21824;BME280;11074;48.596;9.238;2023-10-08T01:30:42;99042.50;;;14.84;67.59
21824;BME280;11074;48.596;9.238;2023-10-08T01:33:12;99038.19;;;14.88;68.20
21824;BME280;11074;48.596;9.238;2023-10-08T01:35:41;99028.53;;;14.87;68.40
21824;BME280;11074;48.596;9.238;2023-10-08T01:38:07;99033.91;;;14.87;68.74
21824;BME280;11074;48.596;9.238;2023-10-08T01:40:34;99023.38;;;14.86;68.65
21824;BME280;11074;48.596;9.238;2023-10-08T01:42:59;99030.09;;;14.83;68.16
21824;BME280;11074;48.596;9.238;2023-10-08T01:45:26;99028.16;;;14.74;68.48
21824;BME280;11074;48.596;9.238;2023-10-08T01:47:52;99023.31;;;14.76;68.13
21824;BME280;11074;48.596;9.238;2023-10-08T01:50:21;99023.03;;;14.77;68.44
21824;BME280;11074;48.596;9.238;2023-10-08T01:52:50;99024.25;;;14.60;68.65
21824;BME280;11074;48.596;9.238;2023-10-08T01:55:18;99021.56;;;14.60;68.30
21824;BME280;11074;48.596;9.238;2023-10-08T01:57:46;99021.59;;;14.65;69.00
21824;BME280;11074;48.596;9.238;2023-10-08T02:00:13;99023.81;;;14.41;68.36
21824;BME280;11074;48.596;9.238;2023-10-08T02:02:40;99017.72;;;14.50;68.58
21824;BME280;11074;48.596;9.238;2023-10-08T02:05:08;99010.44;;;14.51;69.33
21824;BME280;11074;48.596;9.238;2023-10-08T02:07:35;99015.25;;;14.44;69.17
21824;BME280;11074;48.596;9.238;2023-10-08T02:10:00;99013.41;;;14.49;69.21
21824;BME280;11074;48.596;9.238;2023-10-08T02:12:26;99012.59;;;14.22;69.52
21824;BME280;11074;48.596;9.238;2023-10-08T02:14:52;99024.72;;;14.25;69.36
21824;BME280;11074;48.596;9.238;2023-10-08T02:17:17;99022.78;;;14.42;69.60
21824;BME280;11074;48.596;9.238;2023-10-08T02:19:45;99018.66;;;14.34;68.75
21824;BME280;11074;48.596;9.238;2023-10-08T02:22:11;99025.00;;;14.50;69.84
21824;BME280;11074;48.596;9.238;2023-10-08T02:24:37;99019.31;;;14.46;68.73
21824;BME280;11074;48.596;9.238;2023-10-08T02:27:03;99018.09;;;14.32;69.17
21824;BME280;11074;48.596;9.238;2023-10-08T02:29:30;99023.00;;;14.40;69.47
21824;BME280;11074;48.596;9.238;2023-10-08T02:31:57;99019.50;;;14.40;69.38
21824;BME280;11074;48.596;9.238;2023-10-08T02:34:23;99015.19;;;14.39;69.67
21824;BME280;11074;48.596;9.238;2023-10-08T02:36:48;99029.47;;;14.39;69.40
21824;BME280;11074;48.596;9.238;2023-10-08T02:39:14;99024.69;;;14.46;69.18
21824;BME280;11074;48.596;9.238;2023-10-08T02:41:48;99028.44;;;14.45;69.39
21824;BME280;11074;48.596;9.238;2023-10-08T02:44:18;99027.88;;;14.43;69.58
21824;BME280;11074;48.596;9.238;2023-10-08T02:46:47;99034.84;;;14.39;68.82
21824;BME280;11074;48.596;9.238;2023-10-08T02:49:18;99029.53;;;14.23;69.20
21824;BME280;11074;48.596;9.238;2023-10-08T02:51:53;99040.03;;;14.24;70.49
21824;BME280;11074;48.596;9.238;2023-10-08T02:54:22;99042.91;;;13.91;68.84
21824;BME280;11074;48.596;9.238;2023-10-08T02:56:58;99043.41;;;13.88;69.44
21824;BME280;11074;48.596;9.238;2023-10-08T02:59:31;99053.13;;;13.89;70.22
21824;BME280;11074;48.596;9.238;2023-10-08T03:02:14;99045.78;;;14.06;70.13
21824;BME280;11074;48.596;9.238;2023-10-08T03:04:45;99037.16;;;14.04;69.98
21824;BME280;11074;48.596;9.238;2023-10-08T03:07:15;99045.78;;;14.06;70.03
21824;BME280;11074;48.596;9.238;2023-10-08T03:09:51;99044.44;;;14.09;70.58
21824;BME280;11074;48.596;9.238;2023-10-08T03:12:29;99035.97;;;13.95;70.81
21824;BME280;11074;48.596;9.238;2023-10-08T03:14:59;99034.97;;;14.01;70.98
21824;BME280;11074;48.596;9.238;2023-10-08T03:17:39;99034.91;;;13.96;71.38
21824;BME280;11074;48.596;9.238;2023-10-08T03:20:05;99040.44;;;14.11;72.10
21824;BME280;11074;48.596;9.238;2023-10-08T03:22:51;99034.41;;;13.99;72.36
21824;BME280;11074;48.596;9.238;2023-10-08T03:25:17;99034.22;;;13.84;72.69
21824;BME280;11074;48.596;9.238;2023-10-08T03:27:44;99030.53;;;13.90;73.13
21824;BME280;11074;48.596;9.238;2023-10-08T03:30:10;99038.38;;;13.91;72.76
21824;BME280;11074;48.596;9.238;2023-10-08T03:32:43;99025.59;;;13.82;72.68
21824;BME280;11074;48.596;9.238;2023-10-08T03:35:16;99027.47;;;13.81;73.71
21824;BME280;11074;48.596;9.238;2023-10-08T03:37:48;99025.47;;;13.93;73.00
21824;BME280;11074;48.596;9.238;2023-10-08T03:40:16;99016.00;;;13.86;73.50
21824;BME280;11074;48.596;9.238;2023-10-08T03:42:47;99035.63;;;13.86;72.83
21824;BME280;11074;48.596;9.238;2023-10-08T03:45:15;99034.22;;;13.84;72.66
21824;BME280;11074;48.596;9.238;2023-10-08T03:47:51;99028.59;;;13.85;73.39
21824;BME280;11074;48.596;9.238;2023-10-08T03:50:32;99037.50;;;13.86;73.09
21824;BME280;11074;48.596;9.238;2023-10-08T03:53:09;99037.44;;;13.81;72.49
21824;BME280;11074;48.596;9.238;2023-10-08T03:55:39;99028.34;;;13.87;72.85
21824;BME280;11074;48.596;9.238;2023-10-08T03:58:08;99038.59;;;13.90;72.43
21824;BME280;11074;48.596;9.238;2023-10-08T04:00:45;99045.06;;;13.67;72.95
21824;BME280;11074;48.596;9.238;2023-10-08T04:03:11;99044.97;;;13.84;73.04
21824;BME280;11074;48.596;9.238;2023-10-08T04:05:40;99048.47;;;13.84;nan
21824;BME280;11074;48.596;9.238;2023-10-08T04:08:13;99043.81;;;13.75;73.21
21824;BME280;11074;48.596;9.238;2023-10-08T04:11:05;99057.72;;;13.50;73.16
21824;BME280;11074;48.596;9.238;2023-10-08T04:13:34;99043.38;;;13.61;73.35
21824;BME280;11074;48.596;9.238;2023-10-08T04:16:04;99062.53;;;13.48;73.18
21824;BME280;11074;48.596;9.238;2023-10-08T04:18:31;99058.00;;;13.70;73.15
21824;BME280;11074;48.596;9.238;2023-10-08T04:21:03;99055.66;;;13.79;72.87
21824;BME280;11074;48.596;9.238;2023-10-08T04:23:39;99060.81;;;13.80;73.11
21824;BME280;11074;48.596;9.238;2023-10-08T04:26:05;99050.13;;;13.85;73.04
21824;BME280;11074;48.596;9.238;2023-10-08T04:28:32;99043.81;;;13.75;73.63
21824;BME280;11074;48.596;9.238;2023-10-08T04:31:00;99033.06;;;13.75;73.75
21824;BME280;11074;48.596;9.238;2023-10-08T04:33:41;99044.34;;;13.77;73.95
21824;BME280;11074;48.596;9.238;2023-10-08T04:36:07;99038.53;;;13.63;74.56
21824;BME280;11074;48.596;9.238;2023-10-08T04:38:33;99041.22;;;13.63;74.13
21824;BME280;11074;48.596;9.238;2023-10-08T04:41:05;99041.13;;;13.53;74.08
21824;BME280;11074;48.596;9.238;2023-10-08T04:43:35;99043.63;;;13.60;74.34
21824;BME280;11074;48.596;9.238;2023-10-08T04:46:04;99031.94;;;13.49;74.43
21824;BME280;11074;48.596;9.238;2023-10-08T04:48:32;99039.69;;;13.46;75.38
21824;BME280;11074;48.596;9.238;2023-10-08T04:50:59;99041.72;;;13.60;74.36
21824;BME280;11074;48.596;9.238;2023-10-08T04:53:33;99034.97;;;13.58;74.51
21824;BME280;11074;48.596;9.238;2023-10-08T04:56:06;99032.22;;;13.31;74.31
21824;BME280;11074;48.596;9.238;2023-10-08T04:58:33;99029.91;;;13.40;74.64
21824;BME280;11074;48.596;9.238;2023-10-08T05:01:02;99033.97;;;13.42;74.98
21824;BME280;11074;48.596;9.238;2023-10-08T05:03:50;99036.47;;;13.27;74.98
21824;BME280;11074;48.596;9.238;2023-10-08T05:06:33;99051.28;;;13.29;75.80
21824;BME280;11074;48.596;9.238;2023-10-08T05:09:12;99052.97;;;13.35;75.11
21824;BME280;11074;48.596;9.238;2023-10-08T05:11:51;99062.97;;;13.40;75.45
21824;BME280;11074;48.596;9.238;2023-10-08T05:14:23;99069.16;;;13.41;75.26
21824;BME280;11074;48.596;9.238;2023-10-08T05:17:03;99070.06;;;13.29;75.19
21824;BME280;11074;48.596;9.238;2023-10-08T05:19:39;99060.16;;;13.30;75.53
21824;BME280;11074;48.596;9.238;2023-10-08T05:22:12;99054.78;;;13.30;74.77
21824;BME280;11074;48.596;9.238;2023-10-08T05:24:57;99068.28;;;13.35;75.20
21824;BME280;11074;48.596;9.238;2023-10-08T05:27:44;99062.97;;;13.40;75.23
21824;BME280;11074;48.596;9.238;2023-10-08T05:30:20;99060.28;;;13.40;75.34
21824;BME280;11074;48.596;9.238;2023-10-08T05:33:32;99059.88;;;13.31;75.09
21824;BME280;11074;48.596;9.238;2023-10-08T05:36:21;99052.91;;;13.30;74.84
21824;BME280;11074;48.596;9.238;2023-10-08T05:39:24;99038.53;;;13.03;74.71
21824;BME280;11074;48.596;9.238;2023-10-08T05:42:06;99067.78;;;13.38;74.92
21824;BME280;11074;48.596;9.238;2023-10-08T05:45:07;99054.84;;;13.35;74.26
21824;BME280;11074;48.596;9.238;2023-10-08T05:47:33;99065.81;;;13.33;74.19
21824;BME280;11074;48.596;9.238;2023-10-08T05:50:00;99077.25;;;13.24;74.66
21824;BME280;11074;48.596;9.238;2023-10-08T05:52:45;99081.88;;;13.28;74.88
21824;BME280;11074;48.596;9.238;2023-10-08T05:55:24;99083.81;;;13.33;74.99
21824;BME280;11074;48.596;9.238;2023-10-08T05:58:03;99075.19;;;13.31;75.46
21824;BME280;11074;48.596;9.238;2023-10-08T06:00:48;99078.69;;;13.31;75.10
21824;BME280;11074;48.596;9.238;2023-10-08T06:03:17;99091.47;;;13.24;75.40
21824;BME280;11074;48.596;9.238;2023-10-08T06:06:05;99081.22;;;13.21;75.77
21824;BME280;11074;48.596;9.238;2023-10-08T06:08:41;99089.28;;;13.21;75.46
21824;BME280;11074;48.596;9.238;2023-10-08T06:11:26;99088.44;;;13.04;76.26
21824;BME280;11074;48.596;9.238;2023-10-08T06:14:11;99082.44;;;12.97;76.84
21824;BME280;11074;48.596;9.238;2023-10-08T06:16:53;99098.50;;;13.09;76.88
21824;BME280;11074;48.596;9.238;2023-10-08T06:19:39;99091.91;;;13.16;76.79
21824;BME280;11074;48.596;9.238;2023-10-08T06:22:05;99094.16;;;13.24;76.40
21824;BME280;11074;48.596;9.238;2023-10-08T06:24:31;99103.19;;;13.18;76.70
21824;BME280;11074;48.596;9.238;2023-10-08T06:26:58;99101.75;;;13.27;76.30
21824;BME280;11074;48.596;9.238;2023-10-08T06:29:31;99105.22;;;13.28;76.42
21824;BME280;11074;48.596;9.238;2023-10-08T06:31:58;99112.72;;;13.09;76.96
21824;BME280;11074;48.596;9.238;2023-10-08T06:34:29;99106.06;;;13.12;77.32
21824;BME280;11074;48.596;9.238;2023-10-08T06:36:58;99112.31;;;13.17;76.87
21824;BME280;11074;48.596;9.238;2023-10-08T06:39:25;99112.41;;;13.22;76.68
21824;BME280;11074;48.596;9.238;2023-10-08T06:41:59;99105.47;;;13.26;76.56
21824;BME280;11074;48.596;9.238;2023-10-08T06:44:25;99094.91;;;13.20;76.94
21824;BME280;11074;48.596;9.238;2023-10-08T06:47:00;99106.53;;;13.25;77.30
21824;BME280;11074;48.596;9.238;2023-10-08T06:49:26;99097.75;;;13.30;76.79
21824;BME280;11074;48.596;9.238;2023-10-08T06:51:52;99092.38;;;13.30;76.79
21824;BME280;11074;48.596;9.238;2023-10-08T06:54:19;99095.13;;;13.02;77.01
21824;BME280;11074;48.596;9.238;2023-10-08T06:56:46;99089.53;;;13.20;76.77
21824;BME280;11074;48.596;9.238;2023-10-08T06:59:18;99101.88;;;13.38;76.32
21824;BME280;11074;48.596;9.238;2023-10-08T07:01:44;99096.72;;;13.36;75.92
21824;BME280;11074;48.596;9.238;2023-10-08T07:04:13;99093.88;;;13.43;75.97
21824;BME280;11074;48.596;9.238;2023-10-08T07:06:43;99090.53;;;13.52;75.84
21824;BME280;11074;48.596;9.238;2023-10-08T07:09:11;99102.47;;;13.61;75.50
21824;BME280;11074;48.596;9.238;2023-10-08T07:11:58;99101.78;;;13.71;75.14
21824;BME280;11074;48.596;9.238;2023-10-08T07:14:28;99092.19;;;13.75;74.65
21824;BME280;11074;48.596;9.238;2023-10-08T07:16:59;99085.56;;;13.82;74.64
21824;BME280;11074;48.596;9.238;2023-10-08T07:19:30;99082.16;;;13.92;74.30
21824;BME280;11074;48.596;9.238;2023-10-08T07:22:02;99074.25;;;14.02;74.23
21824;BME280;11074;48.596;9.238;2023-10-08T07:24:43;99067.59;;;14.10;73.86
21824;BME280;11074;48.596;9.238;2023-10-08T07:27:11;99074.84;;;14.09;73.71
21824;BME280;11074;48.596;9.238;2023-10-08T07:29:37;99071.16;;;14.15;73.09
21824;BME280;11074;48.596;9.238;2023-10-08T07:32:03;99069.78;;;14.13;73.20
21824;BME280;11074;48.596;9.238;2023-10-08T07:34:37;99073.25;;;14.13;73.17
21824;BME280;11074;48.596;9.238;2023-10-08T07:37:03;99078.97;;;14.17;73.29
21824;BME280;11074;48.596;9.238;2023-10-08T07:39:31;99079.97;;;14.32;72.24
21824;BME280;11074;48.596;9.238;2023-10-08T07:41:59;99082.19;;;14.40;72.94
21824;BME280;11074;48.596;9.238;2023-10-08T07:44:26;99086.06;;;14.49;72.42
21824;BME280;11074;48.596;9.238;2023-10-08T07:46:56;99092.03;;;14.56;72.10
21824;BME280;11074;48.596;9.238;2023-10-08T07:49:23;99085.09;;;14.61;71.73
21824;BME280;11074;48.596;9.238;2023-10-08T07:51:49;99081.38;;;14.67;71.15
21824;BME280;11074;48.596;9.238;2023-10-08T07:54:22;99087.91;;;14.76;71.21
21824;BME280;11074;48.596;9.238;2023-10-08T07:56:50;99090.09;;;14.79;71.91
21824;BME280;11074;48.596;9.238;2023-10-08T07:59:25;99086.38;;;14.85;71.39
21824;BME280;11074;48.596;9.238;2023-10-08T08:01:50;99086.16;;;14.91;71.29
21824;BME280;11074;48.596;9.238;2023-10-08T08:04:19;99088.34;;;14.94;71.45
21824;BME280;11074;48.596;9.238;2023-10-08T08:06:51;99085.13;;;14.97;71.32
21824;BME280;11074;48.596;9.238;2023-10-08T08:09:19;99082.47;;;15.02;71.70
21824;BME280;11074;48.596;9.238;2023-10-08T08:11:49;99078.47;;;15.05;71.85
21824;BME280;11074;48.596;9.238;2023-10-08T08:14:16;99084.19;;;15.13;71.62
21824;BME280;11074;48.596;9.238;2023-10-08T08:16:51;99080.50;;;15.25;70.84
21824;BME280;11074;48.596;9.238;2023-10-08T08:19:17;99079.19;;;15.32;70.74
21824;BME280;11074;48.596;9.238;2023-10-08T08:21:49;99084.59;;;15.37;69.87
21824;BME280;11074;48.596;9.238;2023-10-08T08:24:17;99078.13;;;15.38;70.19
21824;BME280;11074;48.596;9.238;2023-10-08T08:26:55;99079.84;;;15.49;69.55
21824;BME280;11074;48.596;9.238;2023-10-08T08:29:34;99091.19;;;15.51;69.78
21824;BME280;11074;48.596;9.238;2023-10-08T08:32:12;99082.88;;;15.58;68.63
21824;BME280;11074;48.596;9.238;2023-10-08T08:34:44;99076.66;;;15.57;68.72
21824;BME280;11074;48.596;9.238;2023-10-08T08:37:12;99080.19;;;15.63;68.93
21824;BME280;11074;48.596;9.238;2023-10-08T08:39:39;99081.31;;;15.67;68.77
21824;BME280;11074;48.596;9.238;2023-10-08T08:42:07;99075.34;;;15.65;69.24
21824;BME280;11074;48.596;9.238;2023-10-08T08:44:36;99086.97;;;15.75;68.15
21824;BME280;11074;48.596;9.238;2023-10-08T08:47:12;99088.91;;;15.80;69.83
21824;BME280;11074;48.596;9.238;2023-10-08T08:49:44;99100.28;;;15.97;68.86
21824;BME280;11074;48.596;9.238;2023-10-08T08:52:11;99123.00;;;16.06;68.06
21824;BME280;11074;48.596;9.238;2023-10-08T08:54:39;99121.44;;;16.20;68.31
21824;BME280;11074;48.596;9.238;2023-10-08T08:57:06;99128.22;;;16.28;67.74
21824;BME280;11074;48.596;9.238;2023-10-08T08:59:58;99117.97;;;16.30;67.46
21824;BME280;11074;48.596;9.238;2023-10-08T09:02:23;99124.72;;;16.43;67.23
21824;BME280;11074;48.596;9.238;2023-10-08T09:04:49;99115.28;;;16.45;67.08
21824;BME280;11074;48.596;9.238;2023-10-08T09:07:15;99113.19;;;16.57;67.56
21824;BME280;11074;48.596;9.238;2023-10-08T09:09:47;99109.69;;;16.67;67.60
21824;BME280;11074;48.596;9.238;2023-10-08T09:12:16;99114.84;;;16.78;68.20
21824;BME280;11074;48.596;9.238;2023-10-08T09:14:43;99110.25;;;16.89;67.83
21824;BME280;11074;48.596;9.238;2023-10-08T09:17:10;99120.81;;;17.06;67.50
21824;BME280;11074;48.596;9.238;2023-10-08T09:19:38;99130.50;;;17.17;67.45
21824;BME280;11074;48.596;9.238;2023-10-08T09:22:10;99121.31;;;17.23;66.81
21824;BME280;11074;48.596;9.238;2023-10-08T09:24:39;99131.59;;;17.36;66.47
21824;BME280;11074;48.596;9.238;2023-10-08T09:27:12;99131.03;;;17.49;66.33
21824;BME280;11074;48.596;9.238;2023-10-08T09:29:42;99129.94;;;17.65;66.07
21824;BME280;11074;48.596;9.238;2023-10-08T09:32:12;99128.34;;;17.69;64.96
21824;BME280;11074;48.596;9.238;2023-10-08T09:34:52;99108.53;;;17.79;63.80
21824;BME280;11074;48.596;9.238;2023-10-08T09:37:18;99126.88;;;17.97;62.80
21824;BME280;11074;48.596;9.238;2023-10-08T09:39:49;99123.88;;;18.08;62.93
21824;BME280;11074;48.596;9.238;2023-10-08T09:42:19;99124.88;;;18.28;62.23
21824;BME280;11074;48.596;9.238;2023-10-08T09:44:47;99127.44;;;18.53;60.40
21824;BME280;11074;48.596;9.238;2023-10-08T09:47:21;99125.19;;;18.70;59.12
21824;BME280;11074;48.596;9.238;2023-10-08T09:49:57;99118.53;;;18.91;59.08
21824;BME280;11074;48.596;9.238;2023-10-08T09:52:40;99111.41;;;19.00;58.21
21824;BME280;11074;48.596;9.238;2023-10-08T09:55:10;99120.16;;;19.26;57.37
21824;BME280;11074;48.596;9.238;2023-10-08T09:57:37;99110.00;;;19.42;57.00
21824;BME280;11074;48.596;9.238;2023-10-08T10:00:06;99106.16;;;19.48;55.67
21824;BME280;11074;48.596;9.238;2023-10-08T10:02:41;99111.72;;;19.61;55.01
21824;BME280;11074;48.596;9.238;2023-10-08T10:05:11;99113.06;;;19.59;54.40
21824;BME280;11074;48.596;9.238;2023-10-08T10:07:37;99103.22;;;19.68;54.09
21824;BME280;11074;48.596;9.238;2023-10-08T10:10:26;99103.44;;;19.71;53.10
21824;BME280;11074;48.596;9.238;2023-10-08T10:12:53;99106.91;;;19.77;52.92
21824;BME280;11074;48.596;9.238;2023-10-08T10:15:22;99096.22;;;19.85;52.29
21824;BME280;11074;48.596;9.238;2023-10-08T10:17:48;99111.34;;;19.91;51.87
21824;BME280;11074;48.596;9.238;2023-10-08T10:20:15;99104.66;;;19.84;52.38
21824;BME280;11074;48.596;9.238;2023-10-08T10:22:42;99097.72;;;19.96;51.86
21824;BME280;11074;48.596;9.238;2023-10-08T10:25:10;99108.00;;;20.00;51.63
21824;BME280;11074;48.596;9.238;2023-10-08T10:30:24;99095.81;;;19.97;51.90
21824;BME280;11074;48.596;9.238;2023-10-08T10:32:54;99090.19;;;20.12;51.61
21824;BME280;11074;48.596;9.238;2023-10-08T10:35:19;99093.19;;;20.34;51.57
21824;BME280;11074;48.596;9.238;2023-10-08T10:37:46;99085.53;;;20.36;51.29
21824;BME280;11074;48.596;9.238;2023-10-08T10:40:22;99072.53;;;20.33;50.97
21824;BME280;11074;48.596;9.238;2023-10-08T10:43:17;99091.66;;;20.47;51.33
21824;BME280;11074;48.596;9.238;2023-10-08T10:45:45;99093.69;;;20.55;51.26
21824;BME280;11074;48.596;9.238;2023-10-08T10:48:13;99093.84;;;20.64;51.31
21824;BME280;11074;48.596;9.238;2023-10-08T10:50:51;99101.25;;;20.77;51.35
21824;BME280;11074;48.596;9.238;2023-10-08T10:53:31;99092.88;;;20.73;50.73
21824;BME280;11074;48.596;9.238;2023-10-08T10:55:59;99091.94;;;20.83;52.38
21824;BME280;11074;48.596;9.238;2023-10-08T10:58:38;99099.56;;;20.99;50.46
21824;BME280;11074;48.596;9.238;2023-10-08T11:01:06;99104.75;;;21.14;51.35
21824;BME280;11074;48.596;9.238;2023-10-08T11:03:51;99099.16;;;21.25;53.03
21824;BME280;11074;48.596;9.238;2023-10-08T11:06:23;99104.91;;;21.23;51.16
21824;BME280;11074;48.596;9.238;2023-10-08T11:08:52;99098.88;;;21.40;52.86
21824;BME280;11074;48.596;9.238;2023-10-08T11:11:25;99095.38;;;21.53;50.23
21824;BME280;11074;48.596;9.238;2023-10-08T11:13:59;99093.16;;;21.55;50.86
21824;BME280;11074;48.596;9.238;2023-10-08T11:16:28;99091.97;;;21.61;49.58
21824;BME280;11074;48.596;9.238;2023-10-08T11:18:57;99096.69;;;21.69;49.03
21824;BME280;11074;48.596;9.238;2023-10-08T11:21:26;99099.25;;;21.79;49.12
21824;BME280;11074;48.596;9.238;2023-10-08T11:23:57;99091.78;;;21.85;48.45
21824;BME280;11074;48.596;9.238;2023-10-08T11:26:26;99085.72;;;21.88;48.82
21824;BME280;11074;48.596;9.238;2023-10-08T11:29:02;99073.25;;;21.87;49.39
21824;BME280;11074;48.596;9.238;2023-10-08T11:31:29;99092.00;;;21.88;49.92
21824;BME280;11074;48.596;9.238;2023-10-08T11:34:03;99091.19;;;21.88;50.50
21824;BME280;11074;48.596;9.238;2023-10-08T11:36:37;99091.09;;;21.93;49.40
21824;BME280;11074;48.596;9.238;2023-10-08T11:39:14;99088.88;;;21.95;49.94
21824;BME280;11074;48.596;9.238;2023-10-08T11:42:03;99085.13;;;21.91;49.71
21824;BME280;11074;48.596;9.238;2023-10-08T11:44:51;99077.34;;;21.84;49.40
21824;BME280;11074;48.596;9.238;2023-10-08T11:47:18;99086.03;;;21.86;49.57
21824;BME280;11074;48.596;9.238;2023-10-08T11:49:48;99079.47;;;21.73;50.86
21824;BME280;11074;48.596;9.238;2023-10-08T11:52:19;99048.91;;;21.49;50.26
21824;BME280;11074;48.596;9.238;2023-10-08T11:54:49;99073.72;;;21.75;51.07
21824;BME280;11074;48.596;9.238;2023-10-08T11:57:18;99074.53;;;21.75;51.76
21824;BME280;11074;48.596;9.238;2023-10-08T11:59:47;99071.81;;;21.75;50.84
21824;BME280;11074;48.596;9.238;2023-10-08T12:02:13;99079.50;;;21.87;49.86
21824;BME280;11074;48.596;9.238;2023-10-08T12:04:42;99079.75;;;21.86;49.86
21824;BME280;11074;48.596;9.238;2023-10-08T12:07:11;99066.66;;;21.88;51.45
21824;BME280;11074;48.596;9.238;2023-10-08T12:09:36;99065.19;;;21.95;51.15
21824;BME280;11074;48.596;9.238;2023-10-08T12:12:05;99068.69;;;21.96;50.30
21824;BME280;11074;48.596;9.238;2023-10-08T12:14:36;99051.84;;;21.94;50.76
21824;BME280;11074;48.596;9.238;2023-10-08T12:17:04;99059.63;;;22.00;52.27
21824;BME280;11074;48.596;9.238;2023-10-08T12:19:37;99056.47;;;21.93;50.98
21824;BME280;11074;48.596;9.238;2023-10-08T12:22:06;99055.50;;;21.89;50.10
21824;BME280;11074;48.596;9.238;2023-10-08T12:24:33;99048.03;;;21.95;51.03
21824;BME280;11074;48.596;9.238;2023-10-08T12:26:59;99038.13;;;21.99;52.24
21824;BME280;11074;48.596;9.238;2023-10-08T12:29:24;99041.25;;;22.06;54.30
21824;BME280;11074;48.596;9.238;2023-10-08T12:31:51;99039.31;;;22.06;54.57
21824;BME280;11074;48.596;9.238;2023-10-08T12:34:19;99039.31;;;22.06;54.17
21824;BME280;11074;48.596;9.238;2023-10-08T12:36:44;99028.50;;;22.15;51.69
21824;BME280;11074;48.596;9.238;2023-10-08T12:39:13;99010.13;;;22.20;49.98
21824;BME280;11074;48.596;9.238;2023-10-08T12:41:42;99029.25;;;22.43;50.25
21824;BME280;11074;48.596;9.238;2023-10-08T12:44:11;99022.34;;;22.59;48.87
21824;BME280;11074;48.596;9.238;2023-10-08T12:46:37;99019.06;;;22.70;50.44
21824;BME280;11074;48.596;9.238;2023-10-08T12:49:03;99017.22;;;22.79;49.78
21824;BME280;11074;48.596;9.238;2023-10-08T12:51:30;99025.88;;;23.04;49.40
21824;BME280;11074;48.596;9.238;2023-10-08T12:54:00;99015.75;;;23.35;47.85
21824;BME280;11074;48.596;9.238;2023-10-08T12:56:30;99016.19;;;23.59;48.81
21824;BME280;11074;48.596;9.238;2023-10-08T12:59:05;99014.03;;;23.87;49.14
21824;BME280;11074;48.596;9.238;2023-10-08T13:01:36;99009.56;;;23.99;48.85
21824;BME280;11074;48.596;9.238;2023-10-08T13:04:06;99010.41;;;24.26;47.96
21824;BME280;11074;48.596;9.238;2023-10-08T13:06:42;98993.41;;;24.37;46.33
21824;BME280;11074;48.596;9.238;2023-10-08T13:09:11;99002.69;;;24.28;45.62
21824;BME280;11074;48.596;9.238;2023-10-08T13:11:39;98961.19;;;23.91;45.94
21824;BME280;11074;48.596;9.238;2023-10-08T13:14:05;98993.53;;;24.24;45.29
21824;BME280;11074;48.596;9.238;2023-10-08T13:16:31;98999.50;;;24.26;45.90
21824;BME280;11074;48.596;9.238;2023-10-08T13:18:58;98987.59;;;24.56;46.87
21824;BME280;11074;48.596;9.238;2023-10-08T13:21:25;98988.38;;;24.65;45.23
21824;BME280;11074;48.596;9.238;2023-10-08T13:23:52;98985.66;;;24.82;45.20
21824;BME280;11074;48.596;9.238;2023-10-08T13:26:18;98984.28;;;25.05;44.53